createdAt,value
2023-05-04T00:00:06.703Z,8.65
2023-05-04T00:02:33.782Z,7.38
2023-05-04T00:05:00.492Z,8.48
2023-05-04T00:07:27.174Z,9.65
2023-05-04T00:09:53.746Z,7.55
2023-05-04T00:12:20.316Z,10.98
2023-05-04T00:14:46.901Z,6.32
2023-05-04T00:17:13.619Z,8.07
2023-05-04T00:19:40.264Z,5.90
2023-05-04T00:22:06.890Z,5.32
2023-05-04T00:24:34.000Z,17.85
2023-05-04T00:27:00.708Z,7.07
2023-05-04T00:29:27.448Z,6.72
2023-05-04T00:31:54.341Z,7.05
2023-05-04T00:34:20.980Z,6.78
2023-05-04T00:36:47.697Z,7.95
2023-05-04T00:39:14.369Z,6.72
2023-05-04T00:41:41.215Z,6.18
2023-05-04T00:44:08.030Z,6.85
2023-05-04T00:46:37.373Z,6.63
2023-05-04T00:49:04.691Z,7.35
2023-05-04T00:51:31.671Z,9.07
2023-05-04T00:53:58.639Z,8.02
2023-05-04T00:56:26.567Z,8.77
2023-05-04T00:58:53.394Z,8.93
2023-05-04T01:01:23.518Z,6.55
2023-05-04T01:03:51.780Z,7.68
2023-05-04T01:06:27.845Z,7.28
2023-05-04T01:09:07.967Z,9.90
2023-05-04T01:11:42.725Z,12.13
2023-05-04T01:14:11.906Z,8.57
2023-05-04T01:16:38.729Z,7.78
2023-05-04T01:19:05.512Z,10.57
2023-05-04T01:21:32.099Z,8.13
2023-05-04T01:23:59.332Z,8.13
2023-05-04T01:26:30.178Z,10.63
2023-05-04T01:29:08.944Z,7.88
2023-05-04T01:31:38.738Z,9.32
2023-05-04T01:34:07.577Z,13.75
2023-05-04T01:36:34.689Z,8.35
2023-05-04T01:39:03.502Z,9.80
2023-05-04T01:41:33.112Z,9.27
2023-05-04T01:43:59.828Z,8.93
2023-05-04T01:46:26.638Z,9.65
2023-05-04T01:48:53.464Z,9.10
2023-05-04T01:51:22.391Z,11.48
2023-05-04T01:53:50.173Z,8.07
2023-05-04T01:56:17.852Z,10.27
2023-05-04T01:58:44.952Z,8.32
2023-05-04T02:01:11.496Z,8.27
2023-05-04T02:03:38.290Z,8.07
2023-05-04T02:06:05.065Z,11.02
2023-05-04T02:08:31.712Z,12.73
2023-05-04T02:10:58.416Z,11.95
2023-05-04T02:13:25.105Z,9.32
2023-05-04T02:15:51.762Z,10.00
2023-05-04T02:18:18.424Z,8.88
2023-05-04T02:20:45.204Z,11.15
2023-05-04T02:23:14.199Z,19.80
2023-05-04T02:25:40.876Z,10.50
2023-05-04T02:28:09.080Z,11.25
2023-05-04T02:30:37.201Z,11.65
2023-05-04T02:33:03.980Z,11.00
2023-05-04T02:35:30.845Z,11.02
2023-05-04T02:37:57.997Z,9.55
2023-05-04T02:40:24.634Z,10.65
2023-05-04T02:42:51.294Z,14.25
2023-05-04T02:45:18.131Z,9.50
2023-05-04T02:47:44.829Z,13.60
2023-05-04T02:50:11.699Z,15.02
2023-05-04T02:52:38.422Z,10.82
2023-05-04T02:55:05.537Z,9.88
2023-05-04T02:57:32.436Z,12.68
2023-05-04T02:59:59.042Z,10.50
2023-05-04T03:02:25.598Z,11.02
2023-05-04T03:04:52.379Z,13.45
2023-05-04T03:07:19.052Z,11.90
2023-05-04T03:09:47.754Z,14.13
2023-05-04T03:12:14.796Z,11.50
2023-05-04T03:14:42.354Z,11.07
2023-05-04T03:17:08.961Z,12.63
2023-05-04T03:19:36.066Z,9.23
2023-05-04T03:22:03.443Z,11.97
2023-05-04T03:24:30.058Z,11.52
2023-05-04T03:26:56.869Z,15.27
2023-05-04T03:29:24.436Z,18.33
2023-05-04T03:31:52.056Z,13.33
2023-05-04T03:34:18.802Z,13.93
2023-05-04T03:36:45.502Z,11.80
2023-05-04T03:39:12.115Z,13.07
2023-05-04T03:41:39.033Z,10.40
2023-05-04T03:44:05.702Z,10.82
2023-05-04T03:46:32.457Z,11.93
2023-05-04T03:48:59.350Z,9.85
2023-05-04T03:51:26.918Z,9.87
2023-05-04T03:53:53.541Z,8.20
2023-05-04T03:56:20.218Z,10.02
2023-05-04T03:58:46.869Z,8.38
2023-05-04T04:01:16.592Z,11.38
2023-05-04T04:03:43.695Z,11.48
2023-05-04T04:06:11.243Z,11.47
2023-05-04T04:08:38.389Z,10.97
2023-05-04T04:11:05.248Z,13.80
2023-05-04T04:13:32.057Z,11.93
2023-05-04T04:15:58.753Z,13.80
2023-05-04T04:18:25.472Z,12.68
2023-05-04T04:20:52.129Z,16.75
2023-05-04T04:23:18.960Z,15.27
2023-05-04T04:25:46.547Z,13.55
2023-05-04T04:28:15.911Z,15.55
2023-05-04T04:30:42.700Z,28.00
2023-05-04T04:33:10.031Z,18.08
2023-05-04T04:35:36.939Z,18.13
2023-05-04T04:38:04.029Z,18.92
2023-05-04T04:40:30.814Z,17.83
2023-05-04T04:42:57.456Z,18.33
2023-05-04T04:45:24.079Z,22.95
2023-05-04T04:47:51.170Z,22.25
2023-05-04T04:50:17.961Z,21.65
2023-05-04T04:52:44.622Z,25.13
2023-05-04T04:55:11.404Z,21.23
2023-05-04T04:57:38.017Z,26.23
2023-05-04T05:00:05.479Z,21.92
2023-05-04T05:02:32.239Z,18.45
2023-05-04T05:04:59.189Z,21.90
2023-05-04T05:07:25.866Z,17.38
2023-05-04T05:09:52.483Z,19.35
2023-05-04T05:12:19.153Z,19.33
2023-05-04T05:14:45.767Z,20.38
2023-05-04T05:17:12.334Z,18.60
2023-05-04T05:19:40.307Z,19.98
2023-05-04T05:22:08.963Z,15.15
2023-05-04T05:24:35.529Z,21.30
2023-05-04T05:27:02.080Z,20.63
2023-05-04T05:29:28.724Z,20.23
2023-05-04T05:31:55.284Z,18.65
2023-05-04T05:34:21.824Z,18.42
2023-05-04T05:36:48.532Z,20.38
2023-05-04T05:39:15.100Z,16.08
2023-05-04T05:41:41.764Z,14.65
2023-05-04T05:44:08.552Z,18.67
2023-05-04T05:46:35.855Z,18.05
2023-05-04T05:49:05.938Z,19.73
2023-05-04T05:51:32.480Z,17.80
2023-05-04T05:53:59.239Z,14.85
2023-05-04T05:56:25.804Z,19.45
2023-05-04T05:58:52.351Z,14.25
2023-05-04T06:01:19.065Z,18.50
2023-05-04T06:03:45.690Z,15.15
2023-05-04T06:06:12.435Z,16.05
2023-05-04T06:08:39.055Z,16.40
2023-05-04T06:11:05.687Z,12.55
2023-05-04T06:13:32.562Z,14.32
2023-05-04T06:15:59.322Z,14.90
2023-05-04T06:18:25.884Z,14.90
2023-05-04T06:20:58.471Z,12.75
2023-05-04T06:23:25.225Z,10.25
2023-05-04T06:25:52.004Z,11.68
2023-05-04T06:28:18.722Z,14.88
2023-05-04T06:30:45.359Z,21.52
2023-05-04T06:33:11.967Z,12.23
2023-05-04T06:35:38.651Z,13.38
2023-05-04T06:38:05.348Z,11.35
2023-05-04T06:40:31.876Z,12.27
2023-05-04T06:42:58.560Z,10.68
2023-05-04T06:45:25.199Z,14.50
2023-05-04T06:47:52.070Z,10.52
2023-05-04T06:50:18.646Z,13.38
2023-05-04T06:52:45.684Z,12.43
2023-05-04T06:55:12.540Z,8.82
2023-05-04T06:57:39.252Z,9.70
2023-05-04T07:00:06.915Z,9.38
2023-05-04T07:02:33.632Z,8.90
2023-05-04T07:05:00.356Z,10.18
2023-05-04T07:07:26.953Z,9.40
2023-05-04T07:09:53.505Z,10.85
2023-05-04T07:12:20.348Z,11.18
2023-05-04T07:14:46.898Z,14.90
2023-05-04T07:17:13.442Z,8.20
2023-05-04T07:19:40.227Z,8.98
2023-05-04T07:22:06.785Z,7.75
2023-05-04T07:24:33.491Z,11.63
2023-05-04T07:27:00.167Z,12.48
2023-05-04T07:29:26.715Z,9.15
2023-05-04T07:31:53.361Z,12.60
2023-05-04T07:34:23.179Z,10.43
2023-05-04T07:36:51.896Z,10.13
2023-05-04T07:39:18.487Z,8.45
2023-05-04T07:41:46.650Z,9.13
2023-05-04T07:44:14.927Z,7.47
2023-05-04T07:46:41.689Z,8.05
2023-05-04T07:49:08.540Z,11.93
2023-05-04T07:51:35.258Z,9.48
2023-05-04T07:54:01.939Z,9.75
2023-05-04T07:56:28.770Z,9.73
2023-05-04T07:58:55.425Z,8.02
2023-05-04T08:01:22.373Z,13.13
2023-05-04T08:03:48.960Z,11.10
2023-05-04T08:06:15.514Z,9.55
2023-05-04T08:08:42.258Z,10.63
2023-05-04T08:11:19.081Z,9.93
2023-05-04T08:13:49.806Z,10.32
2023-05-04T08:16:16.580Z,10.65
2023-05-04T08:18:43.372Z,9.02
2023-05-04T08:21:10.061Z,7.97
2023-05-04T08:23:36.773Z,9.82
2023-05-04T08:26:04.554Z,9.57
2023-05-04T08:28:33.122Z,8.15
2023-05-04T08:31:00.040Z,9.48
2023-05-04T08:33:26.664Z,7.13
2023-05-04T08:35:53.416Z,8.73
2023-05-04T08:38:20.041Z,9.90
2023-05-04T08:40:47.406Z,8.15
2023-05-04T08:43:15.521Z,5.90
2023-05-04T08:45:42.409Z,8.07
2023-05-04T08:48:10.018Z,12.93
2023-05-04T08:50:38.412Z,9.30
2023-05-04T08:53:12.051Z,8.75
2023-05-04T08:55:41.685Z,6.20
2023-05-04T08:58:11.876Z,10.15
2023-05-04T09:00:39.294Z,10.02
2023-05-04T09:03:07.165Z,8.93
2023-05-04T09:05:34.766Z,7.05
2023-05-04T09:08:01.405Z,8.65
2023-05-04T09:10:29.704Z,11.55
2023-05-04T09:12:56.651Z,7.22
2023-05-04T09:15:23.442Z,5.68
2023-05-04T09:18:04.369Z,7.10
2023-05-04T09:20:31.544Z,7.43
2023-05-04T09:23:05.759Z,7.03
2023-05-04T09:25:32.663Z,8.40
2023-05-04T09:27:59.283Z,8.23
2023-05-04T09:30:26.107Z,7.05
2023-05-04T09:32:52.703Z,5.53
2023-05-04T09:35:33.170Z,6.57
2023-05-04T09:38:01.347Z,6.40
2023-05-04T09:40:46.208Z,6.93
2023-05-04T09:43:12.810Z,6.75
2023-05-04T09:45:44.490Z,7.65
2023-05-04T09:48:37.662Z,10.95
2023-05-04T09:51:06.359Z,4.30
2023-05-04T09:53:33.977Z,9.27
2023-05-04T09:56:14.856Z,6.30
2023-05-04T09:58:43.492Z,6.40
2023-05-04T10:01:10.630Z,4.55
2023-05-04T10:03:37.819Z,5.00
2023-05-04T10:06:05.590Z,3.97
2023-05-04T10:08:33.122Z,8.70
2023-05-04T10:10:59.722Z,5.20
2023-05-04T10:13:26.685Z,5.38
2023-05-04T10:16:04.292Z,5.55
2023-05-04T10:18:40.988Z,5.80
2023-05-04T10:21:29.854Z,8.38
2023-05-04T10:24:31.715Z,8.32
2023-05-04T10:27:07.749Z,4.97
2023-05-04T10:29:35.220Z,7.03
2023-05-04T10:32:02.541Z,5.82
2023-05-04T10:34:31.525Z,6.28
2023-05-04T10:36:59.529Z,4.80
2023-05-04T10:39:33.650Z,6.38
2023-05-04T10:42:07.502Z,8.38
2023-05-04T10:44:36.768Z,5.18
2023-05-04T10:47:08.166Z,10.02
2023-05-04T10:49:36.120Z,3.92
2023-05-04T10:52:13.481Z,6.57
2023-05-04T10:54:41.060Z,7.47
2023-05-04T10:57:09.490Z,4.35
2023-05-04T10:59:36.917Z,7.90
2023-05-04T11:02:04.873Z,5.93
2023-05-04T11:04:32.292Z,4.68
2023-05-04T11:07:04.147Z,7.18
2023-05-04T11:09:39.676Z,3.95
2023-05-04T11:12:07.512Z,5.30
2023-05-04T11:17:26.745Z,5.85
2023-05-04T11:19:54.738Z,6.00
2023-05-04T11:22:21.444Z,5.50
2023-05-04T11:24:48.440Z,6.05
2023-05-04T11:27:28.090Z,5.70
2023-05-04T11:29:54.730Z,4.28
2023-05-04T11:32:21.446Z,3.28
2023-05-04T11:34:48.110Z,4.22
2023-05-04T11:37:14.825Z,5.65
2023-05-04T11:39:41.411Z,5.50
2023-05-04T11:42:08.522Z,5.00
2023-05-04T11:44:36.818Z,5.20
2023-05-04T11:47:03.802Z,3.97
2023-05-04T11:49:30.727Z,7.35
2023-05-04T11:52:08.234Z,3.83
2023-05-04T11:54:35.089Z,5.78
2023-05-04T11:57:01.633Z,4.90
2023-05-04T11:59:28.369Z,5.57
2023-05-04T12:01:56.394Z,5.38
2023-05-04T12:06:50.118Z,5.63
2023-05-04T12:09:16.728Z,8.88
2023-05-04T12:11:53.882Z,8.93
2023-05-04T12:14:20.467Z,4.28
2023-05-04T12:16:55.073Z,5.18
2023-05-04T12:19:21.690Z,5.72
2023-05-04T12:21:53.740Z,5.93
2023-05-04T12:24:24.341Z,5.30
2023-05-04T12:26:51.081Z,7.38
2023-05-04T12:29:17.942Z,8.15
2023-05-04T12:31:44.678Z,5.45
2023-05-04T12:34:11.319Z,7.15
2023-05-04T12:36:37.868Z,5.95
2023-05-04T12:39:04.513Z,5.75
2023-05-04T12:41:31.068Z,8.57
2023-05-04T12:43:57.736Z,4.20
2023-05-04T12:46:24.456Z,5.90
2023-05-04T12:48:51.167Z,6.20
2023-05-04T12:51:17.924Z,4.70
2023-05-04T12:53:45.094Z,7.07
2023-05-04T12:56:11.754Z,5.57
2023-05-04T12:58:38.373Z,7.72
2023-05-04T13:01:05.130Z,6.35
2023-05-04T13:03:31.896Z,5.45
2023-05-04T13:05:58.554Z,3.90
2023-05-04T13:08:25.250Z,7.55
2023-05-04T13:10:51.886Z,6.07
2023-05-04T13:13:19.984Z,5.22
2023-05-04T13:15:50.778Z,6.63
2023-05-04T13:18:17.532Z,5.28
2023-05-04T13:20:44.087Z,9.43
2023-05-04T13:23:10.779Z,5.15
2023-05-04T13:25:37.517Z,5.43
2023-05-04T13:28:04.280Z,5.22
2023-05-04T13:30:31.105Z,5.82
2023-05-04T13:32:57.919Z,6.95
2023-05-04T13:35:24.674Z,5.95
2023-05-04T13:37:51.232Z,5.60
2023-05-04T13:40:17.855Z,5.93
2023-05-04T13:42:44.653Z,7.50
2023-05-04T13:45:11.666Z,3.88
2023-05-04T13:47:38.276Z,6.30
2023-05-04T13:50:05.379Z,6.07
2023-05-04T13:52:32.338Z,4.73
2023-05-04T13:54:59.398Z,6.13
2023-05-04T13:57:26.462Z,5.45
2023-05-04T14:00:05.883Z,6.63
2023-05-04T14:02:39.942Z,3.85
2023-05-04T14:05:07.077Z,6.63
2023-05-04T14:07:35.002Z,5.88
2023-05-04T14:10:01.991Z,8.05
2023-05-04T14:12:28.580Z,3.33
2023-05-04T14:14:55.209Z,5.95
2023-05-04T14:17:21.819Z,4.32
2023-05-04T14:19:48.416Z,2.85
2023-05-04T14:22:14.971Z,6.95
2023-05-04T14:24:41.566Z,5.70
2023-05-04T14:27:08.148Z,4.00
2023-05-04T14:29:35.047Z,5.72
2023-05-04T14:32:01.770Z,4.40
2023-05-04T14:34:31.332Z,19.83
2023-05-04T14:36:57.887Z,4.07
2023-05-04T14:39:24.619Z,4.90
2023-05-04T14:41:51.494Z,5.15
2023-05-04T14:44:18.612Z,3.65
2023-05-04T14:46:45.253Z,5.03
2023-05-04T14:49:16.267Z,3.40
2023-05-04T14:51:51.541Z,5.30
2023-05-04T14:54:18.273Z,8.02
2023-05-04T14:56:44.952Z,5.82
2023-05-04T14:59:11.498Z,4.63
2023-05-04T15:01:38.204Z,3.70
2023-05-04T15:04:04.967Z,11.57
2023-05-04T15:06:31.542Z,3.15
2023-05-04T15:08:58.705Z,4.55
2023-05-04T15:11:25.325Z,6.57
2023-05-04T15:13:52.143Z,5.75
2023-05-04T15:16:18.845Z,3.30
2023-05-04T15:18:45.418Z,3.67
2023-05-04T15:21:12.644Z,5.53
2023-05-04T15:23:39.266Z,2.95
2023-05-04T15:26:05.848Z,5.28
2023-05-04T15:28:32.531Z,4.63
2023-05-04T15:30:59.135Z,4.55
2023-05-04T15:33:25.755Z,4.72
2023-05-04T15:35:52.325Z,7.68
2023-05-04T15:38:18.863Z,3.35
2023-05-04T15:40:45.536Z,6.43
2023-05-04T15:43:12.153Z,4.60
2023-05-04T15:45:38.708Z,5.88
2023-05-04T15:48:05.638Z,2.03
2023-05-04T15:50:33.053Z,3.15
2023-05-04T15:52:59.849Z,3.33
2023-05-04T15:55:26.777Z,3.75
2023-05-04T15:57:53.480Z,4.50
2023-05-04T16:00:20.363Z,3.10
2023-05-04T16:02:47.190Z,3.40
2023-05-04T16:05:13.876Z,6.93
2023-05-04T16:07:40.488Z,4.32
2023-05-04T16:10:08.268Z,3.20
2023-05-04T16:12:35.284Z,5.18
2023-05-04T16:15:01.849Z,2.97
2023-05-04T16:17:28.471Z,3.90
2023-05-04T16:19:55.075Z,2.92
2023-05-04T16:22:21.698Z,4.80
2023-05-04T16:24:48.222Z,3.75
2023-05-04T16:27:14.762Z,2.97
2023-05-04T16:29:41.508Z,3.95
2023-05-04T16:32:08.074Z,4.20
2023-05-04T16:34:34.659Z,4.03
2023-05-04T16:37:01.984Z,6.03
2023-05-04T16:39:29.251Z,4.60
2023-05-04T16:41:56.970Z,4.38
2023-05-04T16:44:24.075Z,4.07
2023-05-04T16:46:50.829Z,11.32
2023-05-04T16:49:18.130Z,5.50
2023-05-04T16:51:44.847Z,6.28
2023-05-04T16:54:11.525Z,3.13
2023-05-04T16:56:38.390Z,3.67
2023-05-04T16:59:05.155Z,3.95
2023-05-04T17:01:32.129Z,8.80
2023-05-04T17:03:58.825Z,4.35
2023-05-04T17:06:25.751Z,5.47
2023-05-04T17:08:52.358Z,4.22
2023-05-04T17:11:19.178Z,5.07
2023-05-04T17:13:45.849Z,4.60
2023-05-04T17:16:12.849Z,3.17
2023-05-04T17:18:39.456Z,6.95
2023-05-04T17:21:06.083Z,5.05
2023-05-04T17:23:32.855Z,3.40
2023-05-04T17:26:01.128Z,5.22
2023-05-04T17:28:28.047Z,7.10
2023-05-04T17:30:54.693Z,9.95
2023-05-04T17:33:21.264Z,3.67
2023-05-04T17:35:48.236Z,5.75
2023-05-04T17:38:15.378Z,5.50
2023-05-04T17:40:42.182Z,6.07
2023-05-04T17:43:09.771Z,4.55
2023-05-04T17:45:36.957Z,6.50
2023-05-04T17:48:04.155Z,4.43
2023-05-04T17:50:31.223Z,5.05
2023-05-04T17:52:58.158Z,4.50
2023-05-04T17:55:25.164Z,7.20
2023-05-04T17:57:53.427Z,4.22
2023-05-04T18:00:20.997Z,6.00
2023-05-04T18:02:47.929Z,4.55
2023-05-04T18:05:14.910Z,4.82
2023-05-04T18:07:41.664Z,6.97
2023-05-04T18:10:09.126Z,4.20
2023-05-04T18:12:38.271Z,4.20
2023-05-04T18:15:05.776Z,3.03
2023-05-04T18:17:32.652Z,6.55
2023-05-04T18:19:59.484Z,1.83
2023-05-04T18:22:26.138Z,4.55
2023-05-04T18:24:52.801Z,2.63
2023-05-04T18:27:19.446Z,2.72
2023-05-04T18:29:45.996Z,6.55
2023-05-04T18:32:12.530Z,4.43
2023-05-04T18:34:39.099Z,5.95
2023-05-04T18:37:08.478Z,4.97
2023-05-04T18:39:35.067Z,3.15
2023-05-04T18:42:01.710Z,2.47
2023-05-04T18:44:28.313Z,3.25
2023-05-04T18:46:54.895Z,5.93
2023-05-04T18:49:21.439Z,5.30
2023-05-04T18:51:47.989Z,3.78
2023-05-04T18:54:14.535Z,3.40
2023-05-04T18:56:43.539Z,4.10
2023-05-04T18:59:10.384Z,3.15
2023-05-04T19:01:40.112Z,2.67
2023-05-04T19:04:06.813Z,2.35
2023-05-04T19:06:33.767Z,3.38
2023-05-04T19:09:00.406Z,3.63
2023-05-04T19:11:27.075Z,3.88
2023-05-04T19:13:53.867Z,6.40
2023-05-04T19:16:20.598Z,3.28
2023-05-04T19:18:47.428Z,3.45
2023-05-04T19:21:14.414Z,2.88
2023-05-04T19:23:41.326Z,3.85
2023-05-04T19:26:08.140Z,3.25
2023-05-04T19:28:35.304Z,4.72
2023-05-04T19:31:02.027Z,2.72
2023-05-04T19:33:40.406Z,3.63
2023-05-04T19:36:14.226Z,4.07
2023-05-04T19:38:40.822Z,3.70
2023-05-04T19:41:07.482Z,5.97
2023-05-04T19:43:34.114Z,1.88
2023-05-04T19:46:03.581Z,2.45
2023-05-04T19:48:30.248Z,4.60
2023-05-04T19:50:56.942Z,1.40
2023-05-04T19:53:23.916Z,2.65
2023-05-04T19:55:50.484Z,6.15
2023-05-04T19:58:17.075Z,2.42
2023-05-04T20:00:43.721Z,2.92
2023-05-04T20:03:10.445Z,3.17
2023-05-04T20:05:37.043Z,5.30
2023-05-04T20:08:05.090Z,2.60
2023-05-04T20:10:32.136Z,1.98
2023-05-04T20:12:58.876Z,3.05
2023-05-04T20:15:25.593Z,1.73
2023-05-04T20:17:52.269Z,3.33
2023-05-04T20:20:19.009Z,3.17
2023-05-04T20:22:46.493Z,3.97
2023-05-04T20:25:13.134Z,4.03
2023-05-04T20:27:39.746Z,4.15
2023-05-04T20:30:07.279Z,1.70
2023-05-04T20:32:34.013Z,2.28
2023-05-04T20:35:00.666Z,3.13
2023-05-04T20:37:27.253Z,3.88
2023-05-04T20:39:54.209Z,2.15
2023-05-04T20:42:20.743Z,4.18
2023-05-04T20:44:47.383Z,3.70
2023-05-04T20:47:13.987Z,5.28
2023-05-04T20:49:40.905Z,3.47
2023-05-04T20:52:07.463Z,2.00
2023-05-04T20:54:34.056Z,1.77
2023-05-04T20:57:00.802Z,6.32
2023-05-04T20:59:27.556Z,1.23
2023-05-04T21:01:54.218Z,1.85
2023-05-04T21:04:20.912Z,2.75
2023-05-04T21:06:48.336Z,2.03
2023-05-04T21:09:15.235Z,2.50
2023-05-04T21:11:41.760Z,5.00
2023-05-04T21:14:08.487Z,2.30
2023-05-04T21:16:35.179Z,2.88
2023-05-04T21:19:01.762Z,5.18
2023-05-04T21:21:28.528Z,1.45
2023-05-04T21:23:55.127Z,5.07
2023-05-04T21:26:21.664Z,5.55
2023-05-04T21:28:48.263Z,3.05
2023-05-04T21:31:14.863Z,3.10
2023-05-04T21:33:41.846Z,4.55
2023-05-04T21:36:15.229Z,3.45
2023-05-04T21:38:42.086Z,3.20
2023-05-04T21:41:13.291Z,4.60
2023-05-04T21:43:40.183Z,4.07
2023-05-04T21:46:06.864Z,3.42
2023-05-04T21:48:33.815Z,2.72
2023-05-04T21:51:00.970Z,2.38
2023-05-04T21:53:27.694Z,2.10
2023-05-04T21:55:54.441Z,3.63
2023-05-04T21:58:21.175Z,4.63
2023-05-04T22:00:47.775Z,4.90
2023-05-04T22:03:14.415Z,4.07
2023-05-04T22:05:41.111Z,3.75
2023-05-04T22:08:07.972Z,3.40
2023-05-04T22:10:34.537Z,3.72
2023-05-04T22:13:01.145Z,3.30
2023-05-04T22:15:38.046Z,1.92
2023-05-04T22:18:09.003Z,2.72
2023-05-04T22:20:35.703Z,2.78
2023-05-04T22:23:02.263Z,2.58
2023-05-04T22:25:28.911Z,2.05
2023-05-04T22:27:55.497Z,1.95
2023-05-04T22:30:22.133Z,3.10
2023-05-04T22:32:48.955Z,2.35
2023-05-04T22:35:15.570Z,3.13
2023-05-04T22:37:42.311Z,5.95
2023-05-04T22:40:09.536Z,3.58
2023-05-04T22:42:36.338Z,1.73
2023-05-04T22:45:02.909Z,3.25
2023-05-04T22:47:29.601Z,3.40
2023-05-04T22:49:56.527Z,3.85
2023-05-04T22:52:24.432Z,3.97
2023-05-04T22:57:17.591Z,6.65
2023-05-04T22:59:44.270Z,2.20
2023-05-04T23:02:11.860Z,2.33
2023-05-04T23:04:39.415Z,3.08
2023-05-04T23:07:05.979Z,3.28
2023-05-04T23:09:32.651Z,3.78
2023-05-04T23:11:59.204Z,2.80
2023-05-04T23:14:25.770Z,4.20
2023-05-04T23:16:52.317Z,5.30
2023-05-04T23:19:18.904Z,6.03
2023-05-04T23:21:45.548Z,4.40
2023-05-04T23:24:12.149Z,3.33
2023-05-04T23:26:38.718Z,3.17
2023-05-04T23:29:05.373Z,4.30
2023-05-04T23:31:32.176Z,3.15
2023-05-04T23:33:58.820Z,3.58
2023-05-04T23:36:25.396Z,2.85
2023-05-04T23:38:51.981Z,5.95
2023-05-04T23:41:18.541Z,2.97
2023-05-04T23:43:45.169Z,6.60
2023-05-04T23:46:11.786Z,3.22
2023-05-04T23:48:38.417Z,5.80
2023-05-04T23:51:05.606Z,7.88
2023-05-04T23:53:32.688Z,2.90
2023-05-04T23:56:04.595Z,6.60
2023-05-04T23:58:32.849Z,4.25
